Key West International Airport
KEYW : now visible

Airfield :











YOU CAN JOIN US ON...

 
LOGIN :

Register | Disclaimer

   EN    FR    IT 

 









Legend :    VFR   Marginal VFR   IFR   Intensive IFR   Very Intensive IFR
Visi :
Ceiling :
>= 8 km
>= 3000ft
5 to 8 km
1000 to 3000 ft
1500m to 5 km
500 to 1000 ft
800 to 1500m
200 to 500 ft
< 800m
< 200 ft
Symbols :   Thunderstorms  Fog  Heavy snow  Heavy precipitations  Wind > 20 kt






- Airport Elevation : 3 ft
- IATA code : EYW


KEYW - Key West International

CURRENT METAR :
  • 031453Z 23007KT 10SM FEW020 31/25 A2996 RMK AO2 SLP145 T03060250 50012

EXPIRED METARs :
  • 031353Z 22006KT 10SM FEW018 31/26 A2996 RMK AO2 SLP145 T03060256
  • 031253Z 20008KT 10SM SCT017 30/26 A2994 RMK AO2 SLP139 T03000256

TAF KEYW
Valid from the 03 at 14:00 until the 04 at 12:00 UTC


031345Z 0314/0412 20006KT P6SM VCSH SCT020 BKN250
FM031500 24007KT P6SM SCT025 SCT250
FM040400 19004KT P6SM FEW025
KZMA FIR / North America



MET'MAP, your aeronautical weather chart ! - Copyright ORBIFLY December 2007 - Disclaimer

ORBIFLY MET'MAP TEAM :

Programming & Development : Alexandra Zaïnal
Concept & original design : Baudouin d'Aumeries
Assistance for programming : Marc-Olivier Méhu
Technical & hardware support : Manuel Goepfert

Contact : metmap@orbifly.com




SOURCES & CREDITS :

   NOAA       Earth
Advisory